sensor_id;sensor_type;location;lat;lon;timestamp;P1;durP1;ratioP1;P2;durP2;ratioP2
8562;SDS011;16392;52.508;13.468;2023-07-30T00:01:24;456.57;;;100.60;;
8562;SDS011;16392;52.508;13.468;2023-07-30T00:03:51;455.40;;;100.40;;
8562;SDS011;16392;52.508;13.468;2023-07-30T00:06:17;454.10;;;100.87;;
8562;SDS011;16392;52.508;13.468;2023-07-30T00:08:45;462.43;;;102.73;;
8562;SDS011;16392;52.508;13.468;2023-07-30T00:11:12;455.13;;;101.80;;
8562;SDS011;16392;52.508;13.468;2023-07-30T00:13:38;459.80;;;102.43;;
8562;SDS011;16392;52.508;13.468;2023-07-30T00:16:05;457.13;;;97.17;;
8562;SDS011;16392;52.508;13.468;2023-07-30T00:18:32;455.77;;;99.90;;
8562;SDS011;16392;52.508;13.468;2023-07-30T00:20:58;454.90;;;100.13;;
8562;SDS011;16392;52.508;13.468;2023-07-30T00:23:25;459.33;;;102.50;;
8562;SDS011;16392;52.508;13.468;2023-07-30T00:25:52;461.47;;;99.70;;
8562;SDS011;16392;52.508;13.468;2023-07-30T00:28:19;454.97;;;101.17;;
8562;SDS011;16392;52.508;13.468;2023-07-30T00:30:46;454.70;;;103.20;;
8562;SDS011;16392;52.508;13.468;2023-07-30T00:33:12;455.50;;;98.33;;
8562;SDS011;16392;52.508;13.468;2023-07-30T00:35:39;462.60;;;100.40;;
8562;SDS011;16392;52.508;13.468;2023-07-30T00:38:06;454.17;;;96.47;;
8562;SDS011;16392;52.508;13.468;2023-07-30T00:40:32;455.00;;;99.23;;
8562;SDS011;16392;52.508;13.468;2023-07-30T00:43:00;452.80;;;97.40;;
8562;SDS011;16392;52.508;13.468;2023-07-30T00:45:27;458.83;;;100.97;;
8562;SDS011;16392;52.508;13.468;2023-07-30T00:47:54;457.10;;;98.90;;
8562;SDS011;16392;52.508;13.468;2023-07-30T00:50:20;459.47;;;100.47;;
8562;SDS011;16392;52.508;13.468;2023-07-30T00:52:47;455.17;;;97.50;;
8562;SDS011;16392;52.508;13.468;2023-07-30T00:55:14;459.60;;;99.90;;
8562;SDS011;16392;52.508;13.468;2023-07-30T00:57:41;458.40;;;99.00;;
8562;SDS011;16392;52.508;13.468;2023-07-30T01:00:10;458.87;;;99.23;;
8562;SDS011;16392;52.508;13.468;2023-07-30T01:02:38;458.40;;;98.90;;
8562;SDS011;16392;52.508;13.468;2023-07-30T01:05:05;458.93;;;98.83;;
8562;SDS011;16392;52.508;13.468;2023-07-30T01:07:32;459.87;;;99.17;;
8562;SDS011;16392;52.508;13.468;2023-07-30T01:09:59;461.47;;;97.17;;
8562;SDS011;16392;52.508;13.468;2023-07-30T01:12:26;459.20;;;99.17;;
8562;SDS011;16392;52.508;13.468;2023-07-30T01:14:53;459.97;;;96.77;;
8562;SDS011;16392;52.508;13.468;2023-07-30T01:17:22;459.50;;;94.70;;
8562;SDS011;16392;52.508;13.468;2023-07-30T01:19:49;463.17;;;98.50;;
8562;SDS011;16392;52.508;13.468;2023-07-30T01:22:21;463.47;;;100.67;;
8562;SDS011;16392;52.508;13.468;2023-07-30T01:24:47;460.57;;;99.77;;
8562;SDS011;16392;52.508;13.468;2023-07-30T01:27:16;459.87;;;97.00;;
8562;SDS011;16392;52.508;13.468;2023-07-30T01:29:48;460.00;;;99.87;;
8562;SDS011;16392;52.508;13.468;2023-07-30T01:32:19;458.27;;;99.33;;
8562;SDS011;16392;52.508;13.468;2023-07-30T01:34:52;462.40;;;100.63;;
8562;SDS011;16392;52.508;13.468;2023-07-30T01:37:20;462.10;;;98.70;;
8562;SDS011;16392;52.508;13.468;2023-07-30T01:39:48;461.73;;;95.73;;
8562;SDS011;16392;52.508;13.468;2023-07-30T01:42:15;464.57;;;99.47;;
8562;SDS011;16392;52.508;13.468;2023-07-30T01:44:42;462.73;;;100.00;;
8562;SDS011;16392;52.508;13.468;2023-07-30T01:47:09;460.63;;;106.17;;
8562;SDS011;16392;52.508;13.468;2023-07-30T01:49:35;471.67;;;98.20;;
8562;SDS011;16392;52.508;13.468;2023-07-30T01:52:02;461.17;;;99.00;;
8562;SDS011;16392;52.508;13.468;2023-07-30T01:54:30;462.43;;;99.17;;
8562;SDS011;16392;52.508;13.468;2023-07-30T01:56:57;456.20;;;96.33;;
8562;SDS011;16392;52.508;13.468;2023-07-30T01:59:23;461.63;;;97.30;;
8562;SDS011;16392;52.508;13.468;2023-07-30T02:01:50;454.37;;;95.53;;
8562;SDS011;16392;52.508;13.468;2023-07-30T02:04:17;454.07;;;96.20;;
8562;SDS011;16392;52.508;13.468;2023-07-30T02:06:43;452.87;;;95.37;;
8562;SDS011;16392;52.508;13.468;2023-07-30T02:09:10;454.97;;;97.03;;
8562;SDS011;16392;52.508;13.468;2023-07-30T02:11:38;454.27;;;98.47;;
8562;SDS011;16392;52.508;13.468;2023-07-30T02:14:04;454.97;;;95.03;;
8562;SDS011;16392;52.508;13.468;2023-07-30T02:16:31;455.67;;;95.83;;
8562;SDS011;16392;52.508;13.468;2023-07-30T02:18:57;456.33;;;95.23;;
8562;SDS011;16392;52.508;13.468;2023-07-30T02:21:24;459.73;;;94.83;;
8562;SDS011;16392;52.508;13.468;2023-07-30T02:23:50;456.17;;;94.73;;
8562;SDS011;16392;52.508;13.468;2023-07-30T02:26:17;455.53;;;95.27;;
8562;SDS011;16392;52.508;13.468;2023-07-30T02:28:45;456.93;;;97.33;;
8562;SDS011;16392;52.508;13.468;2023-07-30T02:31:11;453.53;;;98.23;;
8562;SDS011;16392;52.508;13.468;2023-07-30T02:33:38;451.77;;;96.77;;
8562;SDS011;16392;52.508;13.468;2023-07-30T02:36:05;455.13;;;94.23;;
8562;SDS011;16392;52.508;13.468;2023-07-30T02:38:31;455.87;;;97.63;;
8562;SDS011;16392;52.508;13.468;2023-07-30T02:40:58;451.60;;;95.17;;
8562;SDS011;16392;52.508;13.468;2023-07-30T02:43:25;451.73;;;96.37;;
8562;SDS011;16392;52.508;13.468;2023-07-30T02:45:53;450.80;;;97.57;;
8562;SDS011;16392;52.508;13.468;2023-07-30T02:48:20;450.43;;;96.50;;
8562;SDS011;16392;52.508;13.468;2023-07-30T02:50:46;454.40;;;96.37;;
8562;SDS011;16392;52.508;13.468;2023-07-30T02:53:13;452.77;;;94.83;;
8562;SDS011;16392;52.508;13.468;2023-07-30T02:55:39;452.00;;;97.90;;
8562;SDS011;16392;52.508;13.468;2023-07-30T02:58:06;454.47;;;97.10;;
8562;SDS011;16392;52.508;13.468;2023-07-30T03:00:33;453.57;;;96.43;;
8562;SDS011;16392;52.508;13.468;2023-07-30T03:03:00;452.60;;;96.33;;
8562;SDS011;16392;52.508;13.468;2023-07-30T03:05:27;457.63;;;97.73;;
8562;SDS011;16392;52.508;13.468;2023-07-30T03:07:54;454.00;;;98.77;;
8562;SDS011;16392;52.508;13.468;2023-07-30T03:10:20;455.70;;;116.23;;
8562;SDS011;16392;52.508;13.468;2023-07-30T03:12:47;448.40;;;96.43;;
8562;SDS011;16392;52.508;13.468;2023-07-30T03:15:14;451.40;;;98.80;;
8562;SDS011;16392;52.508;13.468;2023-07-30T03:17:40;447.00;;;94.77;;
8562;SDS011;16392;52.508;13.468;2023-07-30T03:20:08;465.87;;;98.60;;
8562;SDS011;16392;52.508;13.468;2023-07-30T03:22:35;449.47;;;97.33;;
8562;SDS011;16392;52.508;13.468;2023-07-30T03:25:02;451.60;;;96.63;;
8562;SDS011;16392;52.508;13.468;2023-07-30T03:27:29;449.97;;;95.20;;
8562;SDS011;16392;52.508;13.468;2023-07-30T03:29:56;447.80;;;97.63;;
8562;SDS011;16392;52.508;13.468;2023-07-30T03:32:22;451.67;;;100.00;;
8562;SDS011;16392;52.508;13.468;2023-07-30T03:34:49;445.47;;;95.70;;
8562;SDS011;16392;52.508;13.468;2023-07-30T03:37:17;447.60;;;96.30;;
8562;SDS011;16392;52.508;13.468;2023-07-30T03:39:43;448.47;;;99.23;;
8562;SDS011;16392;52.508;13.468;2023-07-30T03:42:10;459.70;;;101.20;;
8562;SDS011;16392;52.508;13.468;2023-07-30T03:44:36;448.03;;;97.47;;
8562;SDS011;16392;52.508;13.468;2023-07-30T03:47:03;449.03;;;94.33;;
8562;SDS011;16392;52.508;13.468;2023-07-30T03:49:30;446.77;;;94.53;;
8562;SDS011;16392;52.508;13.468;2023-07-30T03:51:56;450.53;;;95.90;;
8562;SDS011;16392;52.508;13.468;2023-07-30T03:54:24;445.10;;;96.47;;
8562;SDS011;16392;52.508;13.468;2023-07-30T03:56:51;450.77;;;97.67;;
8562;SDS011;16392;52.508;13.468;2023-07-30T03:59:17;449.77;;;97.57;;
8562;SDS011;16392;52.508;13.468;2023-07-30T04:01:44;444.90;;;95.10;;
8562;SDS011;16392;52.508;13.468;2023-07-30T04:04:11;450.70;;;101.17;;
8562;SDS011;16392;52.508;13.468;2023-07-30T04:06:37;446.70;;;96.63;;
8562;SDS011;16392;52.508;13.468;2023-07-30T04:09:04;453.43;;;97.77;;
8562;SDS011;16392;52.508;13.468;2023-07-30T04:11:32;449.87;;;95.07;;
8562;SDS011;16392;52.508;13.468;2023-07-30T04:13:58;452.83;;;96.50;;
8562;SDS011;16392;52.508;13.468;2023-07-30T04:16:25;450.60;;;96.10;;
8562;SDS011;16392;52.508;13.468;2023-07-30T04:18:52;452.27;;;98.00;;
8562;SDS011;16392;52.508;13.468;2023-07-30T04:21:19;458.53;;;99.10;;
8562;SDS011;16392;52.508;13.468;2023-07-30T04:23:46;466.07;;;103.57;;
8562;SDS011;16392;52.508;13.468;2023-07-30T04:26:13;469.13;;;102.60;;
8562;SDS011;16392;52.508;13.468;2023-07-30T04:28:41;467.63;;;100.23;;
8562;SDS011;16392;52.508;13.468;2023-07-30T04:31:07;475.87;;;104.43;;
8562;SDS011;16392;52.508;13.468;2023-07-30T04:33:34;477.03;;;104.30;;
8562;SDS011;16392;52.508;13.468;2023-07-30T04:36:00;477.93;;;104.03;;
8562;SDS011;16392;52.508;13.468;2023-07-30T04:38:27;474.93;;;102.87;;
8562;SDS011;16392;52.508;13.468;2023-07-30T04:40:57;475.87;;;106.53;;
8562;SDS011;16392;52.508;13.468;2023-07-30T04:43:23;477.90;;;104.83;;
8562;SDS011;16392;52.508;13.468;2023-07-30T04:45:51;484.13;;;120.40;;
8562;SDS011;16392;52.508;13.468;2023-07-30T04:48:18;478.70;;;105.40;;
8562;SDS011;16392;52.508;13.468;2023-07-30T04:50:45;478.03;;;105.20;;
8562;SDS011;16392;52.508;13.468;2023-07-30T04:53:11;479.43;;;102.50;;
8562;SDS011;16392;52.508;13.468;2023-07-30T04:55:38;483.97;;;106.67;;
8562;SDS011;16392;52.508;13.468;2023-07-30T04:58:05;492.90;;;112.87;;
8562;SDS011;16392;52.508;13.468;2023-07-30T05:00:32;495.23;;;113.17;;
8562;SDS011;16392;52.508;13.468;2023-07-30T05:02:59;497.50;;;117.17;;
8562;SDS011;16392;52.508;13.468;2023-07-30T05:05:26;500.80;;;121.33;;
8562;SDS011;16392;52.508;13.468;2023-07-30T05:07:53;509.07;;;134.47;;
8562;SDS011;16392;52.508;13.468;2023-07-30T05:10:19;507.92;;;142.93;;
8562;SDS011;16392;52.508;13.468;2023-07-30T05:12:46;509.92;;;155.68;;
8562;SDS011;16392;52.508;13.468;2023-07-30T05:15:13;515.83;;;174.85;;
8562;SDS011;16392;52.508;13.468;2023-07-30T05:17:39;515.42;;;191.02;;
8562;SDS011;16392;52.508;13.468;2023-07-30T05:20:08;520.65;;;223.32;;
8562;SDS011;16392;52.508;13.468;2023-07-30T05:22:35;518.25;;;225.90;;
8562;SDS011;16392;52.508;13.468;2023-07-30T05:25:02;523.13;;;247.73;;
8562;SDS011;16392;52.508;13.468;2023-07-30T05:27:29;522.42;;;234.23;;
8562;SDS011;16392;52.508;13.468;2023-07-30T05:29:56;524.28;;;254.25;;
8562;SDS011;16392;52.508;13.468;2023-07-30T05:32:23;527.00;;;262.45;;
8562;SDS011;16392;52.508;13.468;2023-07-30T05:34:51;534.83;;;309.75;;
8562;SDS011;16392;52.508;13.468;2023-07-30T05:37:19;540.97;;;325.80;;
8562;SDS011;16392;52.508;13.468;2023-07-30T05:39:46;541.00;;;346.73;;
8562;SDS011;16392;52.508;13.468;2023-07-30T05:42:13;539.97;;;328.80;;
8562;SDS011;16392;52.508;13.468;2023-07-30T05:44:40;537.28;;;330.85;;
8562;SDS011;16392;52.508;13.468;2023-07-30T05:47:06;545.83;;;355.63;;
8562;SDS011;16392;52.508;13.468;2023-07-30T05:49:33;552.40;;;389.15;;
8562;SDS011;16392;52.508;13.468;2023-07-30T05:52:00;547.70;;;371.25;;
8562;SDS011;16392;52.508;13.468;2023-07-30T05:54:27;550.10;;;391.08;;
8562;SDS011;16392;52.508;13.468;2023-07-30T05:56:54;548.03;;;380.27;;
8562;SDS011;16392;52.508;13.468;2023-07-30T05:59:21;541.47;;;360.73;;
8562;SDS011;16392;52.508;13.468;2023-07-30T06:01:47;540.45;;;368.02;;
8562;SDS011;16392;52.508;13.468;2023-07-30T06:04:14;556.03;;;411.00;;
8562;SDS011;16392;52.508;13.468;2023-07-30T06:06:40;558.90;;;428.42;;
8562;SDS011;16392;52.508;13.468;2023-07-30T06:09:07;566.03;;;454.02;;
8562;SDS011;16392;52.508;13.468;2023-07-30T06:11:38;567.35;;;459.67;;
8562;SDS011;16392;52.508;13.468;2023-07-30T06:14:05;574.97;;;484.30;;
8562;SDS011;16392;52.508;13.468;2023-07-30T06:16:32;577.75;;;486.92;;
8562;SDS011;16392;52.508;13.468;2023-07-30T06:18:58;583.70;;;501.85;;
8562;SDS011;16392;52.508;13.468;2023-07-30T06:21:25;621.53;;;553.20;;
8562;SDS011;16392;52.508;13.468;2023-07-30T06:23:52;647.40;;;580.33;;
8562;SDS011;16392;52.508;13.468;2023-07-30T06:26:18;644.65;;;577.08;;
8562;SDS011;16392;52.508;13.468;2023-07-30T06:28:46;648.72;;;581.17;;
8562;SDS011;16392;52.508;13.468;2023-07-30T06:31:13;602.50;;;529.97;;
8562;SDS011;16392;52.508;13.468;2023-07-30T06:33:40;589.65;;;518.17;;
8562;SDS011;16392;52.508;13.468;2023-07-30T06:36:06;573.70;;;490.92;;
8562;SDS011;16392;52.508;13.468;2023-07-30T06:38:33;566.13;;;470.65;;
8562;SDS011;16392;52.508;13.468;2023-07-30T06:41:00;561.95;;;449.50;;
8562;SDS011;16392;52.508;13.468;2023-07-30T06:43:27;560.13;;;429.55;;
8562;SDS011;16392;52.508;13.468;2023-07-30T06:45:55;560.33;;;449.23;;
8562;SDS011;16392;52.508;13.468;2023-07-30T06:48:21;573.00;;;457.23;;
8562;SDS011;16392;52.508;13.468;2023-07-30T06:50:48;565.88;;;466.00;;
8562;SDS011;16392;52.508;13.468;2023-07-30T06:53:15;579.40;;;494.33;;
8562;SDS011;16392;52.508;13.468;2023-07-30T06:55:42;576.05;;;486.02;;
8562;SDS011;16392;52.508;13.468;2023-07-30T06:58:08;567.83;;;470.83;;
8562;SDS011;16392;52.508;13.468;2023-07-30T07:00:35;561.50;;;451.60;;
8562;SDS011;16392;52.508;13.468;2023-07-30T07:03:03;549.78;;;418.83;;
8562;SDS011;16392;52.508;13.468;2023-07-30T07:05:30;541.05;;;368.60;;
8562;SDS011;16392;52.508;13.468;2023-07-30T07:07:57;542.05;;;378.63;;
8562;SDS011;16392;52.508;13.468;2023-07-30T07:10:24;543.72;;;376.27;;
8562;SDS011;16392;52.508;13.468;2023-07-30T07:12:51;558.15;;;444.10;;
8562;SDS011;16392;52.508;13.468;2023-07-30T07:15:17;582.13;;;502.48;;
8562;SDS011;16392;52.508;13.468;2023-07-30T07:17:44;584.22;;;504.58;;
8562;SDS011;16392;52.508;13.468;2023-07-30T07:20:12;607.38;;;537.63;;
8562;SDS011;16392;52.508;13.468;2023-07-30T07:22:38;587.60;;;510.30;;
8562;SDS011;16392;52.508;13.468;2023-07-30T07:25:05;577.15;;;495.70;;
8562;SDS011;16392;52.508;13.468;2023-07-30T07:27:32;577.25;;;494.70;;
8562;SDS011;16392;52.508;13.468;2023-07-30T07:29:59;592.20;;;517.25;;
8562;SDS011;16392;52.508;13.468;2023-07-30T07:32:26;640.13;;;573.75;;
8562;SDS011;16392;52.508;13.468;2023-07-30T07:34:53;623.50;;;556.80;;
8562;SDS011;16392;52.508;13.468;2023-07-30T07:37:21;684.17;;;615.28;;
8562;SDS011;16392;52.508;13.468;2023-07-30T07:39:48;728.75;;;658.03;;
8562;SDS011;16392;52.508;13.468;2023-07-30T07:42:14;739.13;;;666.90;;
8562;SDS011;16392;52.508;13.468;2023-07-30T07:44:41;809.25;;;733.80;;
8562;SDS011;16392;52.508;13.468;2023-07-30T07:47:11;831.63;;;755.10;;
8562;SDS011;16392;52.508;13.468;2023-07-30T07:49:37;839.33;;;762.22;;
8562;SDS011;16392;52.508;13.468;2023-07-30T07:52:04;828.55;;;752.58;;
8562;SDS011;16392;52.508;13.468;2023-07-30T07:54:32;828.80;;;754.15;;
8562;SDS011;16392;52.508;13.468;2023-07-30T07:57:00;850.00;;;773.40;;
8562;SDS011;16392;52.508;13.468;2023-07-30T07:59:26;895.40;;;815.33;;
8562;SDS011;16392;52.508;13.468;2023-07-30T08:01:54;903.58;;;823.70;;
8562;SDS011;16392;52.508;13.468;2023-07-30T08:04:22;895.97;;;815.20;;
8562;SDS011;16392;52.508;13.468;2023-07-30T08:06:49;888.22;;;807.55;;
8562;SDS011;16392;52.508;13.468;2023-07-30T08:09:15;923.85;;;842.22;;
8562;SDS011;16392;52.508;13.468;2023-07-30T08:11:43;918.08;;;837.15;;
8562;SDS011;16392;52.508;13.468;2023-07-30T08:14:10;896.60;;;816.60;;
8562;SDS011;16392;52.508;13.468;2023-07-30T08:16:37;877.40;;;799.50;;
8562;SDS011;16392;52.508;13.468;2023-07-30T08:19:03;881.70;;;804.13;;
8562;SDS011;16392;52.508;13.468;2023-07-30T08:21:30;837.13;;;761.97;;
8562;SDS011;16392;52.508;13.468;2023-07-30T08:23:56;774.10;;;702.90;;
8562;SDS011;16392;52.508;13.468;2023-07-30T08:26:23;786.00;;;714.13;;
8562;SDS011;16392;52.508;13.468;2023-07-30T08:28:51;736.20;;;666.75;;
8562;SDS011;16392;52.508;13.468;2023-07-30T08:31:18;707.15;;;638.05;;
8562;SDS011;16392;52.508;13.468;2023-07-30T08:33:45;738.05;;;667.58;;
8562;SDS011;16392;52.508;13.468;2023-07-30T08:36:11;766.97;;;694.80;;
8562;SDS011;16392;52.508;13.468;2023-07-30T08:38:38;764.58;;;692.75;;
8562;SDS011;16392;52.508;13.468;2023-07-30T08:41:05;802.03;;;728.08;;
8562;SDS011;16392;52.508;13.468;2023-07-30T08:43:32;833.90;;;757.40;;
8562;SDS011;16392;52.508;13.468;2023-07-30T08:46:00;878.20;;;798.97;;
8562;SDS011;16392;52.508;13.468;2023-07-30T08:48:27;883.05;;;803.60;;
8562;SDS011;16392;52.508;13.468;2023-07-30T08:50:56;887.03;;;808.13;;
8562;SDS011;16392;52.508;13.468;2023-07-30T08:53:23;858.92;;;780.50;;
8562;SDS011;16392;52.508;13.468;2023-07-30T08:55:51;859.05;;;782.10;;
8562;SDS011;16392;52.508;13.468;2023-07-30T08:58:19;857.60;;;781.17;;
8562;SDS011;16392;52.508;13.468;2023-07-30T09:00:47;858.70;;;782.97;;
8562;SDS011;16392;52.508;13.468;2023-07-30T09:03:17;801.10;;;728.38;;
8562;SDS011;16392;52.508;13.468;2023-07-30T09:05:44;797.78;;;725.17;;
8562;SDS011;16392;52.508;13.468;2023-07-30T09:08:11;776.22;;;703.28;;
8562;SDS011;16392;52.508;13.468;2023-07-30T09:10:38;801.05;;;726.97;;
8562;SDS011;16392;52.508;13.468;2023-07-30T09:13:05;825.55;;;749.97;;
8562;SDS011;16392;52.508;13.468;2023-07-30T09:15:33;858.28;;;780.75;;
8562;SDS011;16392;52.508;13.468;2023-07-30T09:18:02;864.70;;;786.53;;
8562;SDS011;16392;52.508;13.468;2023-07-30T09:20:37;880.15;;;800.70;;
8562;SDS011;16392;52.508;13.468;2023-07-30T09:23:04;901.20;;;820.60;;
8562;SDS011;16392;52.508;13.468;2023-07-30T09:25:32;881.20;;;801.80;;
8562;SDS011;16392;52.508;13.468;2023-07-30T09:27:58;904.42;;;825.40;;
8562;SDS011;16392;52.508;13.468;2023-07-30T09:30:26;898.28;;;818.17;;
8562;SDS011;16392;52.508;13.468;2023-07-30T09:32:53;910.45;;;830.90;;
8562;SDS011;16392;52.508;13.468;2023-07-30T09:35:22;903.63;;;824.83;;
8562;SDS011;16392;52.508;13.468;2023-07-30T09:37:57;881.20;;;803.95;;
8562;SDS011;16392;52.508;13.468;2023-07-30T09:40:30;843.05;;;768.15;;
8562;SDS011;16392;52.508;13.468;2023-07-30T09:42:58;798.50;;;725.97;;
8562;SDS011;16392;52.508;13.468;2023-07-30T09:45:25;806.15;;;733.47;;
8562;SDS011;16392;52.508;13.468;2023-07-30T09:47:53;772.53;;;700.42;;
8562;SDS011;16392;52.508;13.468;2023-07-30T09:50:21;767.20;;;696.30;;
8562;SDS011;16392;52.508;13.468;2023-07-30T09:52:48;755.47;;;684.35;;
8562;SDS011;16392;52.508;13.468;2023-07-30T09:55:16;789.78;;;717.38;;
8562;SDS011;16392;52.508;13.468;2023-07-30T09:57:44;796.00;;;722.88;;
8562;SDS011;16392;52.508;13.468;2023-07-30T10:00:11;839.22;;;764.25;;
8562;SDS011;16392;52.508;13.468;2023-07-30T10:02:39;840.65;;;765.33;;
8562;SDS011;16392;52.508;13.468;2023-07-30T10:05:08;879.80;;;802.95;;
8562;SDS011;16392;52.508;13.468;2023-07-30T10:07:40;872.53;;;796.67;;
8562;SDS011;16392;52.508;13.468;2023-07-30T10:10:17;853.42;;;777.97;;
8562;SDS011;16392;52.508;13.468;2023-07-30T10:12:45;861.30;;;785.75;;
8562;SDS011;16392;52.508;13.468;2023-07-30T10:15:13;779.58;;;707.15;;
8562;SDS011;16392;52.508;13.468;2023-07-30T10:17:44;802.35;;;729.70;;
8562;SDS011;16392;52.508;13.468;2023-07-30T10:20:20;805.40;;;732.83;;
8562;SDS011;16392;52.508;13.468;2023-07-30T10:22:50;799.42;;;727.33;;
8562;SDS011;16392;52.508;13.468;2023-07-30T10:25:21;801.28;;;728.97;;
8562;SDS011;16392;52.508;13.468;2023-07-30T10:27:49;801.05;;;728.58;;
8562;SDS011;16392;52.508;13.468;2023-07-30T10:30:17;788.20;;;716.25;;
8562;SDS011;16392;52.508;13.468;2023-07-30T10:32:57;781.35;;;709.83;;
8562;SDS011;16392;52.508;13.468;2023-07-30T10:35:35;782.63;;;711.47;;
8562;SDS011;16392;52.508;13.468;2023-07-30T10:41:04;730.65;;;661.70;;
8562;SDS011;16392;52.508;13.468;2023-07-30T10:43:33;746.15;;;676.78;;
8562;SDS011;16392;52.508;13.468;2023-07-30T10:46:01;698.15;;;629.30;;
8562;SDS011;16392;52.508;13.468;2023-07-30T10:48:32;741.20;;;671.47;;
8562;SDS011;16392;52.508;13.468;2023-07-30T10:51:00;758.25;;;688.22;;
8562;SDS011;16392;52.508;13.468;2023-07-30T10:53:27;785.28;;;714.05;;
8562;SDS011;16392;52.508;13.468;2023-07-30T10:55:54;765.80;;;695.17;;
8562;SDS011;16392;52.508;13.468;2023-07-30T10:58:26;797.30;;;725.60;;
8562;SDS011;16392;52.508;13.468;2023-07-30T11:00:53;787.58;;;716.28;;
8562;SDS011;16392;52.508;13.468;2023-07-30T11:03:20;758.03;;;687.75;;
8562;SDS011;16392;52.508;13.468;2023-07-30T11:05:46;757.72;;;687.60;;
8562;SDS011;16392;52.508;13.468;2023-07-30T11:08:13;709.65;;;640.80;;
8562;SDS011;16392;52.508;13.468;2023-07-30T11:10:41;695.25;;;627.47;;
8562;SDS011;16392;52.508;13.468;2023-07-30T11:13:09;692.15;;;624.50;;
8562;SDS011;16392;52.508;13.468;2023-07-30T11:15:41;712.67;;;643.83;;
8562;SDS011;16392;52.508;13.468;2023-07-30T11:18:08;737.80;;;668.28;;
8562;SDS011;16392;52.508;13.468;2023-07-30T11:20:35;733.00;;;664.03;;
8562;SDS011;16392;52.508;13.468;2023-07-30T11:23:03;721.30;;;652.20;;
8562;SDS011;16392;52.508;13.468;2023-07-30T11:25:44;729.45;;;660.20;;
8562;SDS011;16392;52.508;13.468;2023-07-30T11:28:12;728.50;;;659.60;;
8562;SDS011;16392;52.508;13.468;2023-07-30T11:30:38;696.40;;;628.45;;
8562;SDS011;16392;52.508;13.468;2023-07-30T11:33:07;739.47;;;669.70;;
8562;SDS011;16392;52.508;13.468;2023-07-30T11:35:33;734.65;;;663.70;;
8562;SDS011;16392;52.508;13.468;2023-07-30T11:38:01;764.03;;;693.05;;
8562;SDS011;16392;52.508;13.468;2023-07-30T11:40:27;771.80;;;700.10;;
8562;SDS011;16392;52.508;13.468;2023-07-30T11:42:54;783.53;;;711.53;;
8562;SDS011;16392;52.508;13.468;2023-07-30T11:45:21;791.80;;;719.13;;
8562;SDS011;16392;52.508;13.468;2023-07-30T11:47:50;808.03;;;734.70;;
8562;SDS011;16392;52.508;13.468;2023-07-30T11:50:17;804.42;;;731.35;;
8562;SDS011;16392;52.508;13.468;2023-07-30T11:52:53;812.58;;;738.63;;
8562;SDS011;16392;52.508;13.468;2023-07-30T11:55:21;835.13;;;759.80;;
8562;SDS011;16392;52.508;13.468;2023-07-30T11:57:49;828.38;;;752.80;;
8562;SDS011;16392;52.508;13.468;2023-07-30T12:00:16;858.55;;;781.42;;
8562;SDS011;16392;52.508;13.468;2023-07-30T12:02:46;860.75;;;783.42;;
8562;SDS011;16392;52.508;13.468;2023-07-30T12:05:14;868.88;;;791.53;;
8562;SDS011;16392;52.508;13.468;2023-07-30T12:07:42;894.08;;;815.67;;
8562;SDS011;16392;52.508;13.468;2023-07-30T12:10:09;887.83;;;809.08;;
8562;SDS011;16392;52.508;13.468;2023-07-30T12:12:43;879.67;;;800.67;;
8562;SDS011;16392;52.508;13.468;2023-07-30T12:15:10;880.38;;;802.55;;
8562;SDS011;16392;52.508;13.468;2023-07-30T12:17:37;890.33;;;812.22;;
8562;SDS011;16392;52.508;13.468;2023-07-30T12:20:04;865.08;;;787.55;;
8562;SDS011;16392;52.508;13.468;2023-07-30T12:22:33;879.60;;;801.15;;
8562;SDS011;16392;52.508;13.468;2023-07-30T12:25:01;847.25;;;770.63;;
8562;SDS011;16392;52.508;13.468;2023-07-30T12:27:28;898.38;;;819.63;;
8562;SDS011;16392;52.508;13.468;2023-07-30T12:29:55;926.40;;;845.78;;
8562;SDS011;16392;52.508;13.468;2023-07-30T12:32:22;896.22;;;816.28;;
8562;SDS011;16392;52.508;13.468;2023-07-30T12:34:49;916.55;;;836.28;;
8562;SDS011;16392;52.508;13.468;2023-07-30T12:37:16;924.65;;;844.13;;
8562;SDS011;16392;52.508;13.468;2023-07-30T12:39:44;918.08;;;837.55;;
8562;SDS011;16392;52.508;13.468;2023-07-30T12:42:11;933.05;;;852.25;;
8562;SDS011;16392;52.508;13.468;2023-07-30T12:44:37;895.72;;;817.30;;
8562;SDS011;16392;52.508;13.468;2023-07-30T12:47:04;907.03;;;827.70;;
8562;SDS011;16392;52.508;13.468;2023-07-30T12:49:31;895.83;;;818.88;;
8562;SDS011;16392;52.508;13.468;2023-07-30T12:51:58;873.17;;;796.35;;
8562;SDS011;16392;52.508;13.468;2023-07-30T12:54:24;866.78;;;790.33;;
8562;SDS011;16392;52.508;13.468;2023-07-30T12:56:52;880.25;;;803.13;;
8562;SDS011;16392;52.508;13.468;2023-07-30T12:59:19;853.22;;;777.40;;
8562;SDS011;16392;52.508;13.468;2023-07-30T13:01:45;871.33;;;794.50;;
8562;SDS011;16392;52.508;13.468;2023-07-30T13:04:12;865.85;;;789.85;;
8562;SDS011;16392;52.508;13.468;2023-07-30T13:06:39;858.42;;;783.17;;
8562;SDS011;16392;52.508;13.468;2023-07-30T13:09:06;851.83;;;777.15;;
8562;SDS011;16392;52.508;13.468;2023-07-30T13:11:32;813.60;;;739.78;;
8562;SDS011;16392;52.508;13.468;2023-07-30T13:14:00;848.08;;;773.13;;
8562;SDS011;16392;52.508;13.468;2023-07-30T13:16:27;829.97;;;755.03;;
8562;SDS011;16392;52.508;13.468;2023-07-30T13:18:56;825.63;;;752.08;;
8562;SDS011;16392;52.508;13.468;2023-07-30T13:21:22;818.97;;;745.03;;
8562;SDS011;16392;52.508;13.468;2023-07-30T13:23:49;766.80;;;695.63;;
8562;SDS011;16392;52.508;13.468;2023-07-30T13:26:15;795.40;;;722.72;;
8562;SDS011;16392;52.508;13.468;2023-07-30T13:28:43;790.65;;;717.83;;
8562;SDS011;16392;52.508;13.468;2023-07-30T13:31:11;810.47;;;737.10;;
8562;SDS011;16392;52.508;13.468;2023-07-30T13:33:38;832.08;;;757.40;;
8562;SDS011;16392;52.508;13.468;2023-07-30T13:36:05;845.15;;;769.97;;
8562;SDS011;16392;52.508;13.468;2023-07-30T13:38:33;829.22;;;755.40;;
8562;SDS011;16392;52.508;13.468;2023-07-30T13:41:00;791.42;;;718.03;;
8562;SDS011;16392;52.508;13.468;2023-07-30T13:43:27;826.67;;;753.17;;
8562;SDS011;16392;52.508;13.468;2023-07-30T13:45:54;820.35;;;746.75;;
8562;SDS011;16392;52.508;13.468;2023-07-30T13:48:23;786.95;;;715.20;;
8562;SDS011;16392;52.508;13.468;2023-07-30T13:50:50;784.00;;;712.50;;
8562;SDS011;16392;52.508;13.468;2023-07-30T13:53:16;786.50;;;714.72;;
8562;SDS011;16392;52.508;13.468;2023-07-30T13:55:43;767.25;;;696.55;;
8562;SDS011;16392;52.508;13.468;2023-07-30T13:58:10;756.97;;;686.20;;
8562;SDS011;16392;52.508;13.468;2023-07-30T14:00:36;726.10;;;656.92;;
8562;SDS011;16392;52.508;13.468;2023-07-30T14:03:05;695.50;;;627.15;;